Montrose, MO (64770)

7:42 PM CDT on September 02, 2014 (GMT -0500)
Clinton Memorial | Change Station
CLOSE
Current Station
Airport
Location: Clinton,
Elevation: 823 ft
Nearby Weather Stations

Elev 823 ft 38.36 °N, 93.68 °W | Updated 7 minutes ago

Clear
Clear
75 °F
Feels Like 75 °F
N
0
Wind Variable Wind from North

Today
High -- | Low -- °F
--% Chance of Precip.
Yesterday
High -- | Low -- °F
Precip. -- in
6:46 AM 7:44 PM
First Quarter, 56% visible
Pressure 29.96 in
Visibility 8.0 miles
Clouds Clear
Dew Point 72 °F
Humidity 89%
Rainfall 0.00 in
Snow Depth Not available.
UV 0 out of 12
Pollen 7.10 out of 12
Air Quality Not available.
Flu Activity Not available.
METAR KGLY 030035Z AUTO 00000KT 8SM CLR 24/22 A2996 RMK AO2

More Conditions Fewer Conditions

Pressure 29.96 in
Visibility 8.0 miles
Clouds Clear
Dew Point 72 °F
Humidity 89%
Rainfall 0.00 in
Snow Depth Not available.
UV 0 out of 12
Pollen 7.10 out of 12
Air Quality Not available.
Flu Activity Not available.
METAR KGLY 030035Z AUTO 00000KT 8SM CLR 24/22 A2996 RMK AO2

More Conditions Fewer Conditions

10-Day Weather Forecast

Almanac

Astronomy

Sep. 02, 2014 Rise Set
Actual Time 6:46 AM CDT 7:44 PM CDT
Civil Twilight 6:19 AM CDT 8:11 PM CDT
Nautical Twilight 5:47 AM CDT 8:43 PM CDT
Astronomical Twilight 5:14 AM CDT 9:16 PM CDT
Moon 2:25 PM CDT (9/2) No Moon Set
Length of Visible Light 13h 51m
Length of Day
12h 57m
Tomorrow will be 2m 23s shorter.
First Quarter, 56% of the Moon is Illuminated
Today
First Quarter
Sep 8
Full
Sep 15
Last Quarter
Sep 24
New
Oct 1
First Quarter

Today's Extremes

State Highs State Lows

Community

WunderPhotos

Upload Photos

1,749,808 photos uploaded!

Nearby

Snow Depth

Station Depth Elevation
No new snow has been reported.

Earthquake Activity

City Distance Mag. Time & Date
No recent earthquake activity has been reported nearby.
Minimum magnitude displayed is 2.5.

Coastal Water Temperatures

Place Temperature
No Stations Reporting

Nearby Weather Stations